createdAt,value
2022-10-17T00:01:05.946Z,54.12
2022-10-17T00:03:37.438Z,53.69
2022-10-17T00:06:15.027Z,53.61
2022-10-17T00:08:44.205Z,53.54
2022-10-17T00:11:20.363Z,53.58
2022-10-17T00:13:49.723Z,53.32
2022-10-17T00:16:29.122Z,53.61
2022-10-17T00:18:57.041Z,53.75
2022-10-17T00:21:26.456Z,53.80
2022-10-17T00:23:54.653Z,53.57
2022-10-17T00:26:22.829Z,53.58
2022-10-17T00:28:52.495Z,53.61
2022-10-17T00:31:22.635Z,53.25
2022-10-17T00:33:50.860Z,53.05
2022-10-17T00:36:25.591Z,53.05
2022-10-17T00:38:58.285Z,53.10
2022-10-17T00:41:33.373Z,52.92
2022-10-17T00:44:28.129Z,52.65
2022-10-17T00:46:59.381Z,52.63
2022-10-17T00:49:31.660Z,52.57
2022-10-17T00:52:15.953Z,52.15
2022-10-17T00:54:56.161Z,52.19
2022-10-17T00:57:24.838Z,52.10
2022-10-17T00:59:56.337Z,51.96
2022-10-17T01:02:24.760Z,51.94
2022-10-17T01:04:57.177Z,51.60
2022-10-17T01:07:26.506Z,51.85
2022-10-17T01:09:54.778Z,52.10
2022-10-17T01:12:36.781Z,51.82
2022-10-17T01:15:23.867Z,51.91
2022-10-17T01:18:34.598Z,52.32
2022-10-17T01:22:13.437Z,52.76
2022-10-17T01:24:52.616Z,53.17
2022-10-17T01:27:45.527Z,53.19
2022-10-17T01:30:31.066Z,52.90
2022-10-17T01:33:31.197Z,53.49
2022-10-17T01:36:11.777Z,53.46
2022-10-17T01:38:49.745Z,53.53
2022-10-17T01:41:33.087Z,53.56
2022-10-17T01:44:10.457Z,53.88
2022-10-17T01:46:48.911Z,53.61
2022-10-17T01:49:24.368Z,53.47
2022-10-17T01:52:04.083Z,53.90
2022-10-17T01:54:46.037Z,53.90
2022-10-17T01:57:42.411Z,53.34
2022-10-17T02:00:17.096Z,53.50
2022-10-17T02:02:48.302Z,53.39
2022-10-17T02:05:21.944Z,53.21
2022-10-17T02:07:49.728Z,53.51
2022-10-17T02:10:33.501Z,53.25
2022-10-17T02:13:36.033Z,53.59
2022-10-17T02:16:14.171Z,53.89
2022-10-17T02:19:15.084Z,53.93
2022-10-17T02:22:02.022Z,54.02
2022-10-17T02:24:41.485Z,54.54
2022-10-17T02:27:12.546Z,54.38
2022-10-17T02:30:46.604Z,54.91
2022-10-17T02:33:44.992Z,55.05
2022-10-17T02:36:23.412Z,55.13
2022-10-17T02:38:53.548Z,54.80
2022-10-17T02:41:23.835Z,54.86
2022-10-17T02:43:55.657Z,54.77
2022-10-17T02:46:28.707Z,54.66
2022-10-17T02:49:24.523Z,54.18
2022-10-17T02:52:27.159Z,54.13
2022-10-17T02:55:12.725Z,54.23
2022-10-17T02:57:48.657Z,53.88
2022-10-17T03:00:19.844Z,53.85
2022-10-17T03:02:52.500Z,53.82
2022-10-17T03:05:27.875Z,53.99
2022-10-17T03:07:56.889Z,54.31
2022-10-17T03:10:25.495Z,54.60
2022-10-17T03:12:54.611Z,54.91
2022-10-17T03:15:22.555Z,54.89
2022-10-17T03:17:50.287Z,55.07
2022-10-17T03:20:18.891Z,54.79
2022-10-17T03:22:46.852Z,55.70
2022-10-17T03:25:14.446Z,55.62
2022-10-17T03:27:42.255Z,55.94
2022-10-17T03:30:10.700Z,56.09
2022-10-17T03:32:39.868Z,56.62
2022-10-17T03:35:10.200Z,56.50
2022-10-17T03:37:42.037Z,56.79
2022-10-17T03:40:10.355Z,56.97
2022-10-17T03:42:38.186Z,57.14
2022-10-17T03:45:06.276Z,57.31
2022-10-17T03:47:34.096Z,57.55
2022-10-17T03:50:02.141Z,57.46
2022-10-17T03:52:33.098Z,57.37
2022-10-17T03:55:01.926Z,57.56
2022-10-17T03:57:30.103Z,57.45
2022-10-17T03:59:58.489Z,57.18
2022-10-17T04:02:26.263Z,57.06
2022-10-17T04:04:53.811Z,57.05
2022-10-17T04:07:21.658Z,57.58
2022-10-17T04:09:49.582Z,57.70
2022-10-17T04:12:22.820Z,57.88
2022-10-17T04:14:50.513Z,57.88
2022-10-17T04:17:18.678Z,58.09
2022-10-17T04:19:46.698Z,58.56
2022-10-17T04:22:17.809Z,58.66
2022-10-17T04:24:45.459Z,58.78
2022-10-17T04:27:31.547Z,58.92
2022-10-17T04:29:59.291Z,59.08
2022-10-17T04:32:27.307Z,58.83
2022-10-17T04:35:02.584Z,59.35
2022-10-17T04:37:30.698Z,59.19
2022-10-17T04:40:00.009Z,59.12
2022-10-17T04:42:31.408Z,59.41
2022-10-17T04:44:59.173Z,59.27
2022-10-17T04:47:28.043Z,59.74
2022-10-17T04:49:56.617Z,59.96
2022-10-17T04:52:25.343Z,59.71
2022-10-17T04:54:53.761Z,59.83
2022-10-17T04:57:22.621Z,60.27
2022-10-17T04:59:57.998Z,60.91
2022-10-17T05:02:48.783Z,60.79
2022-10-17T05:05:16.493Z,61.26
2022-10-17T05:07:47.000Z,61.14
2022-10-17T05:10:19.066Z,61.37
2022-10-17T05:12:50.982Z,61.30
2022-10-17T05:15:21.952Z,61.04
2022-10-17T05:17:54.155Z,61.05
2022-10-17T05:20:21.687Z,61.26
2022-10-17T05:22:50.295Z,61.60
2022-10-17T05:25:21.592Z,61.80
2022-10-17T05:27:49.319Z,61.71
2022-10-17T05:30:18.625Z,61.46
2022-10-17T05:32:46.832Z,62.10
2022-10-17T05:35:14.737Z,62.08
2022-10-17T05:37:42.714Z,62.27
2022-10-17T05:40:12.278Z,62.23
2022-10-17T05:42:47.812Z,62.36
2022-10-17T05:45:16.806Z,61.35
2022-10-17T05:47:44.700Z,61.60
2022-10-17T05:50:13.238Z,61.16
2022-10-17T05:52:59.362Z,61.03
2022-10-17T05:55:27.276Z,60.37
2022-10-17T05:57:55.097Z,60.05
2022-10-17T06:00:24.895Z,59.36
2022-10-17T06:02:58.560Z,59.16
2022-10-17T06:05:26.264Z,58.91
2022-10-17T06:07:57.071Z,58.61
2022-10-17T06:10:27.949Z,58.15
2022-10-17T06:12:57.653Z,58.08
2022-10-17T06:15:26.565Z,57.85
2022-10-17T06:18:07.443Z,58.07
2022-10-17T06:20:35.216Z,57.66
2022-10-17T06:23:03.867Z,58.15
2022-10-17T06:25:48.487Z,58.18
2022-10-17T06:28:16.224Z,57.96
2022-10-17T06:30:43.662Z,57.87
2022-10-17T06:33:14.813Z,58.19
2022-10-17T06:35:42.722Z,58.29
2022-10-17T06:38:10.918Z,57.98
2022-10-17T06:40:38.554Z,57.99
2022-10-17T06:43:09.790Z,57.77
2022-10-17T06:46:18.555Z,57.28
2022-10-17T06:48:56.817Z,56.99
2022-10-17T06:51:37.785Z,57.03
2022-10-17T06:54:08.533Z,56.65
2022-10-17T06:56:48.751Z,56.41
2022-10-17T06:59:22.735Z,56.14
2022-10-17T07:01:56.392Z,56.24
2022-10-17T07:04:26.026Z,56.00
2022-10-17T07:06:54.665Z,55.79
2022-10-17T07:09:25.136Z,55.64
2022-10-17T07:11:52.701Z,55.56
2022-10-17T07:14:20.609Z,55.33
2022-10-17T07:16:49.953Z,54.50
2022-10-17T07:19:24.062Z,54.44
2022-10-17T07:21:51.942Z,53.64
2022-10-17T07:24:19.838Z,53.63
2022-10-17T07:26:52.403Z,53.46
2022-10-17T07:29:20.817Z,53.47
2022-10-17T07:32:04.097Z,53.26
2022-10-17T07:34:31.898Z,52.77
2022-10-17T07:37:00.618Z,52.96
2022-10-17T07:39:30.043Z,52.99
2022-10-17T07:41:58.882Z,53.01
2022-10-17T07:44:26.784Z,53.05
2022-10-17T07:46:55.159Z,52.74
2022-10-17T07:49:22.921Z,52.60
2022-10-17T07:51:50.492Z,52.46
2022-10-17T07:54:18.280Z,52.10
2022-10-17T07:56:50.530Z,51.70
2022-10-17T07:59:19.671Z,51.19
2022-10-17T08:01:47.365Z,50.54
2022-10-17T08:04:16.851Z,50.44
2022-10-17T08:06:46.930Z,50.50
2022-10-17T08:09:14.721Z,50.19
2022-10-17T08:11:44.140Z,50.12
2022-10-17T08:14:13.909Z,50.38
2022-10-17T08:16:41.286Z,50.24
2022-10-17T08:19:11.406Z,50.15
2022-10-17T08:21:39.092Z,50.57
2022-10-17T08:24:06.921Z,49.89
2022-10-17T08:26:36.266Z,50.04
2022-10-17T08:29:05.831Z,50.32
2022-10-17T08:31:33.440Z,50.63
2022-10-17T08:34:01.200Z,49.79
2022-10-17T08:36:29.226Z,49.81
2022-10-17T08:38:57.087Z,50.33
2022-10-17T08:41:45.690Z,49.88
2022-10-17T08:45:10.319Z,49.55
2022-10-17T08:47:54.937Z,49.97
2022-10-17T08:50:51.078Z,49.27
2022-10-17T08:53:40.929Z,48.57
2022-10-17T08:56:48.776Z,48.25
2022-10-17T08:59:31.720Z,48.59
2022-10-17T09:02:21.157Z,47.97
2022-10-17T09:05:09.495Z,47.54
2022-10-17T09:07:53.369Z,46.94
2022-10-17T09:10:26.332Z,47.30
2022-10-17T09:13:31.069Z,46.82
2022-10-17T09:16:45.746Z,45.42
2022-10-17T09:19:23.200Z,45.66
2022-10-17T09:22:12.831Z,45.68
2022-10-17T09:25:00.000Z,45.75
2022-10-17T09:28:02.015Z,45.28
2022-10-17T09:31:18.539Z,44.82
2022-10-17T09:33:54.305Z,44.33
2022-10-17T09:36:33.448Z,44.62
2022-10-17T09:39:14.971Z,45.53
2022-10-17T09:41:57.022Z,44.60
2022-10-17T09:44:33.505Z,44.03
2022-10-17T09:47:23.834Z,44.85
2022-10-17T09:49:51.759Z,44.11
2022-10-17T09:52:27.976Z,44.64
2022-10-17T09:55:07.705Z,45.05
2022-10-17T09:57:57.894Z,44.44
2022-10-17T10:00:39.921Z,45.68
2022-10-17T10:03:27.656Z,44.52
2022-10-17T10:06:02.810Z,44.65
2022-10-17T10:08:49.791Z,45.34
2022-10-17T10:11:19.917Z,44.48
2022-10-17T10:13:49.404Z,43.67
2022-10-17T10:16:33.031Z,43.74
2022-10-17T10:19:03.611Z,44.03
2022-10-17T10:21:34.553Z,45.70
2022-10-17T10:24:13.961Z,44.62
2022-10-17T10:26:48.879Z,44.30
2022-10-17T10:29:34.781Z,44.68
2022-10-17T10:32:40.125Z,44.57
2022-10-17T10:35:24.066Z,45.11
2022-10-17T10:37:56.780Z,44.41
2022-10-17T10:40:51.143Z,43.29
2022-10-17T10:43:51.637Z,43.45
2022-10-17T10:46:30.021Z,44.63
2022-10-17T10:49:03.530Z,44.40
2022-10-17T10:51:47.655Z,44.17
2022-10-17T10:54:40.195Z,43.33
2022-10-17T10:57:20.077Z,44.11
2022-10-17T10:59:56.614Z,42.51
2022-10-17T11:13:12.259Z,41.45
2022-10-17T11:15:53.702Z,40.93
2022-10-17T11:18:38.579Z,40.83
2022-10-17T11:21:19.893Z,39.70
2022-10-17T11:24:09.114Z,39.08
2022-10-17T11:26:46.588Z,38.62
2022-10-17T11:29:14.318Z,38.54
2022-10-17T11:31:53.050Z,38.10
2022-10-17T11:34:32.943Z,38.16
2022-10-17T11:37:11.778Z,37.58
2022-10-17T11:39:56.433Z,36.86
2022-10-17T11:42:40.568Z,37.14
2022-10-17T11:45:22.795Z,36.51
2022-10-17T11:47:58.849Z,36.15
2022-10-17T11:54:18.812Z,35.59
2022-10-17T11:57:32.751Z,35.88
2022-10-17T12:00:45.111Z,35.57
2022-10-17T12:03:56.942Z,35.16
2022-10-17T12:06:58.845Z,34.31
2022-10-17T12:09:43.752Z,34.19
2022-10-17T12:12:23.230Z,34.36
2022-10-17T12:14:50.669Z,34.17
2022-10-17T12:17:40.560Z,33.35
2022-10-17T12:20:30.725Z,33.42
2022-10-17T12:23:13.287Z,32.81
2022-10-17T12:25:56.954Z,32.33
2022-10-17T12:28:33.167Z,31.67
2022-10-17T12:31:19.055Z,30.96
2022-10-17T12:33:46.672Z,31.76
2022-10-17T12:36:17.319Z,30.52
2022-10-17T12:38:50.406Z,30.28
2022-10-17T12:41:40.940Z,29.63
2022-10-17T12:44:15.151Z,29.11
2022-10-17T12:46:55.933Z,28.80
2022-10-17T12:49:23.990Z,28.69
2022-10-17T12:52:31.551Z,27.35
2022-10-17T12:55:12.501Z,27.68
2022-10-17T12:58:03.965Z,27.11
2022-10-17T13:00:43.870Z,26.87
2022-10-17T13:03:48.350Z,27.14
2022-10-17T13:06:27.006Z,26.45
2022-10-17T13:09:04.166Z,25.79
2022-10-17T13:11:36.315Z,25.30
2022-10-17T13:14:15.460Z,24.81
2022-10-17T13:17:07.446Z,24.75
2022-10-17T13:19:46.586Z,24.43
2022-10-17T13:22:28.151Z,24.29
2022-10-17T13:25:16.943Z,24.57
2022-10-17T13:27:45.500Z,24.63
2022-10-17T13:30:29.398Z,23.99
2022-10-17T13:33:01.274Z,23.31
2022-10-17T13:35:58.961Z,23.11
2022-10-17T13:38:34.802Z,22.58
2022-10-17T13:41:34.313Z,22.51
2022-10-17T13:43:59.831Z,22.11
2022-10-17T13:46:39.570Z,21.58
2022-10-17T13:49:28.149Z,21.00
2022-10-17T13:51:58.384Z,21.06
2022-10-17T13:54:33.042Z,21.07
2022-10-17T13:57:02.585Z,20.61
2022-10-17T13:59:55.067Z,20.38
2022-10-17T14:02:31.919Z,19.87
2022-10-17T14:05:18.359Z,20.40
2022-10-17T14:08:16.933Z,20.21
2022-10-17T14:10:45.755Z,20.22
2022-10-17T14:13:26.863Z,20.11
2022-10-17T14:15:59.028Z,20.40
2022-10-17T14:18:36.627Z,19.54
2022-10-17T14:24:22.378Z,20.30
2022-10-17T14:26:59.568Z,19.35
2022-10-17T14:29:52.955Z,19.60
2022-10-17T14:32:22.424Z,19.38
2022-10-17T14:35:05.601Z,19.40
2022-10-17T14:37:48.853Z,19.84
2022-10-17T14:40:23.502Z,19.46
2022-10-17T14:42:58.173Z,19.86
2022-10-17T14:45:33.101Z,19.20
2022-10-17T14:48:17.236Z,19.11
2022-10-17T14:51:11.822Z,19.45
2022-10-17T14:53:41.775Z,19.73
2022-10-17T14:56:33.855Z,20.06
2022-10-17T14:59:03.036Z,20.90
2022-10-17T15:01:30.526Z,21.18
2022-10-17T15:03:58.228Z,21.76
2022-10-17T15:06:34.399Z,21.86
2022-10-17T15:09:02.908Z,21.98
2022-10-17T15:11:30.348Z,22.77
2022-10-17T15:13:58.124Z,24.10
2022-10-17T15:16:31.193Z,25.45
2022-10-17T15:18:59.041Z,26.69
2022-10-17T15:21:38.417Z,27.95
2022-10-17T15:24:09.839Z,29.34
2022-10-17T15:26:37.880Z,30.57
2022-10-17T15:29:05.790Z,32.34
2022-10-17T15:31:33.657Z,32.74
2022-10-17T15:34:01.620Z,33.44
2022-10-17T15:36:51.887Z,34.49
2022-10-17T15:39:19.702Z,35.22
2022-10-17T15:41:48.161Z,35.43
2022-10-17T15:44:16.024Z,36.52
2022-10-17T15:46:43.858Z,36.73
2022-10-17T15:49:18.656Z,37.56
2022-10-17T15:51:47.781Z,37.53
2022-10-17T15:54:18.140Z,38.03
2022-10-17T15:56:54.840Z,38.26
2022-10-17T15:59:30.071Z,38.72
2022-10-17T16:01:58.220Z,39.34
2022-10-17T16:04:27.524Z,39.52
2022-10-17T16:06:55.026Z,39.55
2022-10-17T16:09:22.768Z,40.06
2022-10-17T16:11:50.915Z,40.32
2022-10-17T16:14:18.676Z,40.58
2022-10-17T16:16:46.243Z,40.91
2022-10-17T16:19:14.820Z,41.29
2022-10-17T16:21:42.721Z,41.87
2022-10-17T16:24:14.783Z,41.91
2022-10-17T16:26:42.331Z,42.32
2022-10-17T16:29:10.253Z,42.82
2022-10-17T16:31:45.011Z,43.32
2022-10-17T16:34:14.960Z,43.31
2022-10-17T16:36:43.457Z,43.92
2022-10-17T16:39:11.179Z,44.79
2022-10-17T16:41:40.089Z,44.83
2022-10-17T16:44:11.115Z,45.15
2022-10-17T16:46:38.647Z,45.45
2022-10-17T16:49:07.560Z,45.89
2022-10-17T16:51:35.971Z,45.98
2022-10-17T16:54:04.774Z,46.27
2022-10-17T16:56:33.050Z,46.41
2022-10-17T16:59:01.811Z,46.67
2022-10-17T17:01:29.802Z,46.96
2022-10-17T17:03:58.116Z,47.17
2022-10-17T17:06:29.010Z,47.17
2022-10-17T17:08:57.524Z,47.48
2022-10-17T17:11:28.109Z,47.25
2022-10-17T17:13:58.480Z,47.69
2022-10-17T17:16:27.538Z,47.97
2022-10-17T17:19:10.551Z,48.05
2022-10-17T17:21:38.494Z,48.26
2022-10-17T17:24:06.744Z,48.90
2022-10-17T17:26:39.142Z,48.50
2022-10-17T17:29:07.213Z,48.69
2022-10-17T17:31:35.834Z,48.83
2022-10-17T17:34:03.702Z,49.06
2022-10-17T17:36:35.024Z,49.04
2022-10-17T17:39:07.690Z,48.93
2022-10-17T17:41:35.224Z,49.21
2022-10-17T17:44:04.192Z,49.32
2022-10-17T17:46:32.862Z,49.05
2022-10-17T17:49:01.139Z,49.29
2022-10-17T17:51:29.459Z,49.45
2022-10-17T17:53:57.905Z,49.38
2022-10-17T17:56:28.992Z,49.28
2022-10-17T17:59:02.324Z,49.27
2022-10-17T18:01:39.238Z,49.45
2022-10-17T18:04:09.249Z,49.31
2022-10-17T18:06:37.829Z,49.28
2022-10-17T18:09:07.613Z,49.52
2022-10-17T18:11:45.463Z,49.64
2022-10-17T18:14:15.040Z,49.71
2022-10-17T18:16:42.724Z,49.80
2022-10-17T18:19:11.453Z,49.91
2022-10-17T18:21:39.073Z,49.96
2022-10-17T18:24:07.591Z,50.23
2022-10-17T18:26:35.532Z,49.84
2022-10-17T18:29:04.502Z,50.01
2022-10-17T18:31:38.113Z,50.07
2022-10-17T18:34:06.907Z,50.15
2022-10-17T18:36:35.722Z,50.56
2022-10-17T18:39:04.930Z,50.56
2022-10-17T18:41:33.141Z,50.63
2022-10-17T18:44:01.221Z,50.44
2022-10-17T18:46:36.227Z,50.41
2022-10-17T18:49:04.212Z,50.63
2022-10-17T18:51:31.991Z,50.35
2022-10-17T18:53:59.995Z,50.32
2022-10-17T18:56:28.990Z,50.11
2022-10-17T18:58:57.508Z,49.89
2022-10-17T19:01:28.131Z,49.26
2022-10-17T19:03:58.868Z,49.41
2022-10-17T19:06:32.045Z,49.08
2022-10-17T19:09:03.969Z,48.97
2022-10-17T19:11:33.519Z,49.06
2022-10-17T19:14:05.567Z,49.08
2022-10-17T19:16:36.566Z,49.11
2022-10-17T19:19:15.357Z,49.36
2022-10-17T19:21:44.097Z,49.25
2022-10-17T19:24:18.289Z,48.95
2022-10-17T19:26:50.264Z,49.04
2022-10-17T19:29:19.066Z,49.29
2022-10-17T19:31:47.839Z,49.33
2022-10-17T19:34:17.933Z,49.48
2022-10-17T19:36:46.165Z,49.58
2022-10-17T19:39:18.819Z,49.69
2022-10-17T19:41:48.373Z,49.58
2022-10-17T19:44:17.316Z,49.53
2022-10-17T19:46:46.792Z,49.35
2022-10-17T19:49:15.679Z,49.58
2022-10-17T19:51:43.743Z,49.25
2022-10-17T19:54:12.369Z,49.20
2022-10-17T19:56:43.090Z,49.43
2022-10-17T19:59:14.712Z,49.15
2022-10-17T20:01:43.106Z,49.45
2022-10-17T20:04:12.388Z,49.25
2022-10-17T20:06:41.944Z,49.48
2022-10-17T20:09:17.379Z,49.93
2022-10-17T20:11:45.882Z,50.21
2022-10-17T20:14:13.626Z,50.50
2022-10-17T20:16:41.284Z,50.45
2022-10-17T20:19:13.180Z,50.55
2022-10-17T20:21:40.690Z,50.70
2022-10-17T20:24:13.997Z,50.53
2022-10-17T20:26:42.850Z,50.85
2022-10-17T20:29:19.351Z,50.85
2022-10-17T20:31:48.108Z,51.03
2022-10-17T20:34:18.259Z,51.11
2022-10-17T20:36:46.651Z,51.51
2022-10-17T20:39:16.680Z,51.38
2022-10-17T20:41:45.635Z,52.01
2022-10-17T20:44:14.073Z,51.98
2022-10-17T20:46:48.786Z,52.15
2022-10-17T20:49:25.641Z,52.10
2022-10-17T20:51:53.143Z,52.51
2022-10-17T20:54:22.348Z,51.98
2022-10-17T20:56:49.938Z,51.64
2022-10-17T20:59:18.643Z,51.69
2022-10-17T21:01:47.282Z,51.50
2022-10-17T21:04:44.836Z,51.67
2022-10-17T21:07:02.871Z,51.44
2022-10-17T21:09:31.319Z,51.03
2022-10-17T21:11:58.828Z,51.22
2022-10-17T21:14:26.644Z,51.05
2022-10-17T21:16:55.440Z,51.04
2022-10-17T21:19:34.370Z,50.81
2022-10-17T21:22:05.498Z,50.78
2022-10-17T21:24:33.431Z,50.64
2022-10-17T21:27:01.075Z,50.69
2022-10-17T21:29:28.767Z,50.64
2022-10-17T21:31:56.283Z,50.24
2022-10-17T21:34:25.257Z,50.37
2022-10-17T21:36:58.895Z,50.71
2022-10-17T21:39:55.639Z,50.73
2022-10-17T21:42:25.767Z,50.43
2022-10-17T21:45:04.771Z,50.42
2022-10-17T21:48:12.542Z,50.58
2022-10-17T21:50:44.808Z,50.98
2022-10-17T21:53:16.196Z,50.85
2022-10-17T21:55:45.236Z,50.56
2022-10-17T21:58:15.451Z,50.27
2022-10-17T22:00:45.144Z,50.19
2022-10-17T22:03:16.515Z,50.27
2022-10-17T22:05:47.112Z,50.00
2022-10-17T22:08:15.993Z,50.06
2022-10-17T22:10:48.352Z,50.13
2022-10-17T22:13:30.933Z,50.10
2022-10-17T22:16:12.364Z,50.11
2022-10-17T22:18:41.533Z,50.35
2022-10-17T22:21:19.578Z,49.99
2022-10-17T22:23:54.666Z,50.19
2022-10-17T22:26:22.526Z,50.13
2022-10-17T22:28:50.261Z,49.96
2022-10-17T22:31:18.164Z,49.98
2022-10-17T22:33:45.891Z,50.06
2022-10-17T22:36:13.888Z,49.81
2022-10-17T22:38:41.390Z,49.87
2022-10-17T22:41:09.141Z,49.74
2022-10-17T22:43:36.773Z,49.64
2022-10-17T22:46:07.004Z,49.29
2022-10-17T22:48:35.419Z,49.30
2022-10-17T22:51:03.260Z,49.50
2022-10-17T22:53:30.872Z,49.48
2022-10-17T22:56:14.846Z,49.49
2022-10-17T22:58:42.447Z,49.48
2022-10-17T23:01:18.981Z,49.43
2022-10-17T23:03:47.314Z,49.81
2022-10-17T23:06:17.311Z,49.73
2022-10-17T23:08:44.976Z,49.59
2022-10-17T23:11:13.084Z,49.99
2022-10-17T23:13:43.659Z,50.00
2022-10-17T23:16:11.478Z,50.42
2022-10-17T23:18:39.580Z,49.90
2022-10-17T23:21:10.542Z,50.16
2022-10-17T23:23:38.254Z,50.19
2022-10-17T23:26:13.922Z,50.45
2022-10-17T23:28:42.728Z,50.12
2022-10-17T23:31:20.086Z,50.49
2022-10-17T23:33:49.343Z,50.73
2022-10-17T23:36:19.802Z,50.85
2022-10-17T23:38:52.748Z,50.90
2022-10-17T23:41:22.947Z,51.22
2022-10-17T23:43:51.237Z,51.33
2022-10-17T23:46:19.206Z,51.60
2022-10-17T23:48:46.609Z,51.54
2022-10-17T23:51:14.363Z,51.67
2022-10-17T23:53:41.896Z,52.03
2022-10-17T23:56:11.349Z,51.84
2022-10-17T23:58:39.480Z,51.94
